createdAt,value
2022-12-23T00:02:42.722Z,4.65
2022-12-23T00:05:35.780Z,4.63
2022-12-23T00:08:23.801Z,4.66
2022-12-23T00:11:16.416Z,4.66
2022-12-23T00:14:22.149Z,4.72
2022-12-23T00:17:21.643Z,4.68
2022-12-23T00:20:10.823Z,4.69
2022-12-23T00:23:05.742Z,4.61
2022-12-23T00:25:51.812Z,4.60
2022-12-23T00:28:37.608Z,4.69
2022-12-23T00:31:23.772Z,4.68
2022-12-23T00:34:11.173Z,4.68
2022-12-23T00:36:57.006Z,4.70
2022-12-23T00:40:06.590Z,4.71
2022-12-23T00:42:56.115Z,4.74
2022-12-23T00:45:42.026Z,4.60
2022-12-23T00:48:46.369Z,4.72
2022-12-23T00:51:32.523Z,4.74
2022-12-23T00:54:18.692Z,4.74
2022-12-23T00:57:05.129Z,4.66
2022-12-23T00:59:51.129Z,4.77
2022-12-23T01:03:00.622Z,4.78
2022-12-23T01:05:46.605Z,4.77
2022-12-23T01:08:32.393Z,4.79
2022-12-23T01:11:18.330Z,4.79
2022-12-23T01:14:04.506Z,4.82
2022-12-23T01:16:50.851Z,4.81
2022-12-23T01:19:37.404Z,4.81
2022-12-23T01:22:23.728Z,4.79
2022-12-23T01:25:09.845Z,4.82
2022-12-23T01:27:56.110Z,4.81
2022-12-23T01:30:42.020Z,4.83
2022-12-23T01:33:27.979Z,4.73
2022-12-23T01:36:13.899Z,4.83
2022-12-23T01:38:59.614Z,4.84
2022-12-23T01:42:04.179Z,4.76
2022-12-23T01:45:03.553Z,4.85
2022-12-23T01:47:52.734Z,4.83
2022-12-23T01:50:45.480Z,4.75
2022-12-23T01:53:32.093Z,4.74
2022-12-23T01:56:17.743Z,4.76
2022-12-23T01:59:09.045Z,4.86
2022-12-23T02:02:13.523Z,4.90
2022-12-23T02:05:00.292Z,4.86
2022-12-23T02:08:04.603Z,4.86
2022-12-23T02:11:15.549Z,4.79
2022-12-23T02:14:51.354Z,4.78
2022-12-23T02:18:09.430Z,4.79
2022-12-23T02:21:04.690Z,4.84
2022-12-23T02:23:56.581Z,4.78
2022-12-23T02:27:07.444Z,4.83
2022-12-23T02:30:19.350Z,4.84
2022-12-23T02:34:00.584Z,4.82
2022-12-23T02:36:49.228Z,4.79
2022-12-23T02:39:39.727Z,4.92
2022-12-23T02:42:45.547Z,4.90
2022-12-23T02:46:06.989Z,4.90
2022-12-23T02:48:53.160Z,4.94
2022-12-23T02:51:43.008Z,4.91
2022-12-23T02:54:36.158Z,4.93
2022-12-23T02:57:27.493Z,4.94
2022-12-23T03:00:15.345Z,4.96
2022-12-23T03:03:01.679Z,4.98
2022-12-23T03:05:48.930Z,4.98
2022-12-23T03:08:39.937Z,5.03
2022-12-23T03:11:40.400Z,4.96
2022-12-23T03:14:35.549Z,5.03
2022-12-23T03:17:43.454Z,5.03
2022-12-23T03:20:38.692Z,5.02
2022-12-23T03:24:03.380Z,4.99
2022-12-23T03:26:51.107Z,5.07
2022-12-23T03:29:43.561Z,5.04
2022-12-23T03:32:33.749Z,4.95
2022-12-23T03:35:23.078Z,5.00
2022-12-23T03:38:10.481Z,5.09
2022-12-23T03:41:00.186Z,5.10
2022-12-23T03:43:53.398Z,5.07
2022-12-23T03:46:43.041Z,5.02
2022-12-23T03:49:42.079Z,5.03
2022-12-23T03:52:32.850Z,5.11
2022-12-23T03:55:23.294Z,5.11
2022-12-23T03:58:28.717Z,5.06
2022-12-23T04:01:19.386Z,5.17
2022-12-23T04:04:16.786Z,5.13
2022-12-23T04:07:07.886Z,5.14
2022-12-23T04:09:54.590Z,5.10
2022-12-23T04:12:40.814Z,5.11
2022-12-23T04:15:27.436Z,5.17
2022-12-23T04:18:13.522Z,5.17
2022-12-23T04:20:59.578Z,5.22
2022-12-23T04:23:45.774Z,5.20
2022-12-23T04:26:31.715Z,5.23
2022-12-23T04:29:17.481Z,5.21
2022-12-23T04:32:03.311Z,5.23
2022-12-23T04:34:49.280Z,5.24
2022-12-23T04:37:35.097Z,5.24
2022-12-23T04:40:20.996Z,5.24
2022-12-23T04:43:06.851Z,5.23
2022-12-23T04:45:52.876Z,5.28
2022-12-23T04:48:39.113Z,5.26
2022-12-23T04:51:24.958Z,5.28
2022-12-23T04:54:10.992Z,5.18
2022-12-23T04:56:56.902Z,5.30
2022-12-23T04:59:42.610Z,5.31
2022-12-23T05:02:28.682Z,5.20
2022-12-23T05:05:14.431Z,5.23
2022-12-23T05:08:05.440Z,5.17
2022-12-23T05:10:51.161Z,5.16
2022-12-23T05:13:36.931Z,5.28
2022-12-23T05:16:22.783Z,5.28
2022-12-23T05:19:09.060Z,5.30
2022-12-23T05:21:54.906Z,5.27
2022-12-23T05:24:40.692Z,5.29
2022-12-23T05:27:26.606Z,5.30
2022-12-23T05:30:12.429Z,5.35
2022-12-23T05:32:58.453Z,5.31
2022-12-23T05:35:44.560Z,5.24
2022-12-23T05:38:30.813Z,5.35
2022-12-23T05:41:17.237Z,5.36
2022-12-23T05:44:03.148Z,5.23
2022-12-23T05:46:48.956Z,5.38
2022-12-23T05:49:34.767Z,5.36
2022-12-23T05:52:20.635Z,5.39
2022-12-23T05:55:07.074Z,5.39
2022-12-23T05:57:53.274Z,5.35
2022-12-23T06:00:39.326Z,5.29
2022-12-23T06:03:25.559Z,5.36
2022-12-23T06:06:11.758Z,5.35
2022-12-23T06:08:59.869Z,5.29
2022-12-23T06:11:46.289Z,5.34
2022-12-23T06:14:32.183Z,5.33
2022-12-23T06:17:18.018Z,5.33
2022-12-23T06:20:04.499Z,5.33
2022-12-23T06:22:50.741Z,5.33
2022-12-23T06:25:36.528Z,5.29
2022-12-23T06:28:22.546Z,5.32
2022-12-23T06:31:08.465Z,5.33
2022-12-23T06:33:54.329Z,5.38
2022-12-23T06:36:40.303Z,5.38
2022-12-23T06:39:26.414Z,5.27
2022-12-23T06:42:12.528Z,5.42
2022-12-23T06:44:58.452Z,5.40
2022-12-23T06:47:44.727Z,5.39
2022-12-23T06:50:30.850Z,5.32
2022-12-23T06:53:16.627Z,5.45
2022-12-23T06:56:03.686Z,5.36
2022-12-23T06:58:49.795Z,5.28
2022-12-23T07:01:35.915Z,5.45
2022-12-23T07:04:21.897Z,5.47
2022-12-23T07:07:07.871Z,5.52
2022-12-23T07:09:53.612Z,5.52
2022-12-23T07:12:39.606Z,5.56
2022-12-23T07:15:25.321Z,5.57
2022-12-23T07:18:11.177Z,5.56
2022-12-23T07:21:00.177Z,5.60
2022-12-23T07:23:46.789Z,5.64
2022-12-23T07:26:33.600Z,5.66
2022-12-23T07:29:19.400Z,5.67
2022-12-23T07:32:05.522Z,5.49
2022-12-23T07:34:51.377Z,5.68
2022-12-23T07:37:37.425Z,5.55
2022-12-23T07:40:24.029Z,5.71
2022-12-23T07:43:10.572Z,5.68
2022-12-23T07:46:00.224Z,5.71
2022-12-23T07:48:47.210Z,5.71
2022-12-23T07:51:33.081Z,5.72
2022-12-23T07:54:19.127Z,5.81
2022-12-23T07:57:04.951Z,5.78
2022-12-23T07:59:50.798Z,5.76
2022-12-23T08:02:36.767Z,5.79
2022-12-23T08:05:23.040Z,5.76
2022-12-23T08:08:08.829Z,5.87
2022-12-23T08:10:59.936Z,5.90
2022-12-23T08:13:46.300Z,5.95
2022-12-23T08:16:36.525Z,5.95
2022-12-23T08:19:25.250Z,6.03
2022-12-23T08:22:11.176Z,6.03
2022-12-23T08:24:56.960Z,6.07
2022-12-23T08:27:42.805Z,6.08
2022-12-23T08:30:28.943Z,6.18
2022-12-23T08:33:14.791Z,6.25
2022-12-23T08:36:01.079Z,6.34
2022-12-23T08:38:47.558Z,6.38
2022-12-23T08:41:37.732Z,6.52
2022-12-23T08:44:27.025Z,6.54
2022-12-23T08:47:13.047Z,6.61
2022-12-23T08:49:58.966Z,6.57
2022-12-23T08:52:44.984Z,6.62
2022-12-23T08:55:30.935Z,6.64
2022-12-23T08:58:16.867Z,6.80
2022-12-23T09:01:04.531Z,6.87
2022-12-23T09:03:51.229Z,6.97
2022-12-23T09:06:40.883Z,7.04
2022-12-23T09:09:26.843Z,7.07
2022-12-23T09:12:12.763Z,7.18
2022-12-23T09:14:58.750Z,7.28
2022-12-23T09:17:44.924Z,7.35
2022-12-23T09:20:30.795Z,7.41
2022-12-23T09:23:16.314Z,7.47
2022-12-23T09:26:04.745Z,7.55
2022-12-23T09:28:51.316Z,7.66
2022-12-23T09:31:38.077Z,7.66
2022-12-23T09:34:23.917Z,7.74
2022-12-23T09:37:10.025Z,7.81
2022-12-23T09:39:55.999Z,7.85
2022-12-23T09:42:52.955Z,7.93
2022-12-23T09:45:47.429Z,7.94
2022-12-23T09:48:38.541Z,8.06
2022-12-23T09:51:24.838Z,8.13
2022-12-23T09:54:19.979Z,8.19
2022-12-23T09:57:42.333Z,8.24
2022-12-23T10:00:32.385Z,8.32
2022-12-23T10:03:25.900Z,8.36
2022-12-23T10:06:20.387Z,8.46
2022-12-23T10:09:07.820Z,8.51
2022-12-23T10:11:53.715Z,8.57
2022-12-23T10:14:40.755Z,8.63
2022-12-23T10:17:34.968Z,8.66
2022-12-23T10:20:38.014Z,8.69
2022-12-23T10:23:37.796Z,8.68
2022-12-23T10:26:32.705Z,8.78
2022-12-23T10:29:21.233Z,8.86
2022-12-23T10:32:29.073Z,8.93
2022-12-23T10:35:18.218Z,9.00
2022-12-23T10:38:16.292Z,9.02
2022-12-23T10:41:34.663Z,8.94
2022-12-23T10:44:42.561Z,9.15
2022-12-23T10:47:48.070Z,9.14
2022-12-23T10:51:03.215Z,9.08
2022-12-23T10:53:53.766Z,9.18
2022-12-23T10:56:39.634Z,9.20
2022-12-23T10:59:31.700Z,9.24
2022-12-23T11:02:33.291Z,9.29
2022-12-23T11:05:24.233Z,9.31
2022-12-23T11:08:11.004Z,9.39
2022-12-23T11:10:57.180Z,9.40
2022-12-23T11:13:45.208Z,9.52
2022-12-23T11:16:30.965Z,9.54
2022-12-23T11:19:17.187Z,9.62
2022-12-23T11:22:02.846Z,9.62
2022-12-23T11:24:48.865Z,9.67
2022-12-23T11:27:35.101Z,9.79
2022-12-23T11:30:28.366Z,9.80
2022-12-23T11:33:25.449Z,9.82
2022-12-23T11:36:14.568Z,9.91
2022-12-23T11:39:28.296Z,9.91
2022-12-23T11:42:20.603Z,9.97
2022-12-23T11:45:07.427Z,10.00
2022-12-23T11:47:53.679Z,10.05
2022-12-23T11:50:40.563Z,10.12
2022-12-23T11:53:27.837Z,10.11
2022-12-23T11:56:15.278Z,10.22
2022-12-23T11:59:06.518Z,10.24
2022-12-23T12:01:53.934Z,10.24
2022-12-23T12:04:40.485Z,10.31
2022-12-23T12:07:27.189Z,10.31
2022-12-23T12:10:25.381Z,10.36
2022-12-23T12:13:33.445Z,10.34
2022-12-23T12:16:51.759Z,10.38
2022-12-23T12:19:46.943Z,10.44
2022-12-23T12:22:48.361Z,10.48
2022-12-23T12:25:43.292Z,10.56
2022-12-23T12:28:34.036Z,10.51
2022-12-23T12:31:40.024Z,10.68
2022-12-23T12:34:28.895Z,10.81
2022-12-23T12:37:17.606Z,10.90
2022-12-23T12:40:12.724Z,10.90
2022-12-23T12:43:22.565Z,11.00
2022-12-23T12:46:42.646Z,11.05
2022-12-23T12:49:57.591Z,11.08
2022-12-23T12:52:44.157Z,11.34
2022-12-23T12:55:32.903Z,11.49
2022-12-23T12:58:21.333Z,12.65
2022-12-23T13:01:39.892Z,14.87
2022-12-23T13:04:55.336Z,18.49
2022-12-23T13:08:05.702Z,22.15
2022-12-23T13:11:10.945Z,24.92
2022-12-23T13:14:26.361Z,27.37
2022-12-23T13:17:33.509Z,28.91
2022-12-23T13:21:10.497Z,30.23
2022-12-23T13:24:08.480Z,31.07
2022-12-23T13:27:00.648Z,31.45
2022-12-23T13:30:06.851Z,30.98
2022-12-23T13:33:05.226Z,30.44
2022-12-23T13:36:19.666Z,29.69
2022-12-23T13:39:27.645Z,28.26
2022-12-23T13:42:23.014Z,26.51
2022-12-23T13:45:15.343Z,24.94
2022-12-23T13:48:09.226Z,23.61
2022-12-23T13:51:41.404Z,22.25
2022-12-23T13:55:02.332Z,20.96
2022-12-23T13:57:48.005Z,20.10
2022-12-23T14:00:34.833Z,19.31
2022-12-23T14:03:24.691Z,18.64
2022-12-23T14:06:26.236Z,18.00
2022-12-23T14:09:14.974Z,17.43
2022-12-23T14:12:31.585Z,16.81
2022-12-23T14:15:26.103Z,16.27
2022-12-23T14:18:28.288Z,15.76
2022-12-23T14:21:43.586Z,15.32
2022-12-23T14:24:54.377Z,14.83
2022-12-23T14:28:03.696Z,14.68
2022-12-23T14:30:49.733Z,14.29
2022-12-23T14:33:38.066Z,14.04
2022-12-23T14:36:26.217Z,13.81
2022-12-23T14:39:12.403Z,13.51
2022-12-23T14:42:05.182Z,13.29
2022-12-23T14:44:52.785Z,12.95
2022-12-23T14:47:40.602Z,12.80
2022-12-23T14:50:33.075Z,12.67
2022-12-23T14:53:22.944Z,12.42
2022-12-23T14:56:14.933Z,12.30
2022-12-23T14:59:31.829Z,12.12
2022-12-23T15:02:31.642Z,11.95
2022-12-23T15:05:23.137Z,11.79
2022-12-23T15:08:37.193Z,11.66
2022-12-23T15:11:28.360Z,11.60
2022-12-23T15:14:31.055Z,11.48
2022-12-23T15:17:25.938Z,11.41
2022-12-23T15:20:24.221Z,11.20
2022-12-23T15:23:17.221Z,11.11
2022-12-23T15:26:03.672Z,11.09
2022-12-23T15:28:49.551Z,10.97
2022-12-23T15:31:39.675Z,10.83
2022-12-23T15:34:29.611Z,10.82
2022-12-23T15:37:24.606Z,10.73
2022-12-23T15:40:28.529Z,10.64
2022-12-23T15:43:20.506Z,10.61
2022-12-23T15:46:16.118Z,10.49
2022-12-23T15:49:02.181Z,10.47
2022-12-23T15:52:08.042Z,10.42
2022-12-23T15:54:57.477Z,10.27
2022-12-23T15:57:50.029Z,10.25
2022-12-23T16:00:41.407Z,10.16
2022-12-23T16:03:37.193Z,9.88
2022-12-23T16:06:25.612Z,10.02
2022-12-23T16:09:17.725Z,9.90
2022-12-23T16:12:26.248Z,9.88
2022-12-23T16:15:32.624Z,9.81
2022-12-23T16:18:22.847Z,9.83
2022-12-23T16:21:12.231Z,9.74
2022-12-23T16:23:59.362Z,9.71
2022-12-23T16:26:45.276Z,9.63
2022-12-23T16:29:33.628Z,9.48
2022-12-23T16:32:20.013Z,9.52
2022-12-23T16:35:12.577Z,9.36
2022-12-23T16:38:21.808Z,9.35
2022-12-23T16:41:08.338Z,9.36
2022-12-23T16:43:54.507Z,9.29
2022-12-23T16:46:44.050Z,9.17
2022-12-23T16:49:33.805Z,9.10
2022-12-23T16:52:20.082Z,9.12
2022-12-23T16:55:15.379Z,9.05
2022-12-23T16:58:01.347Z,9.04
2022-12-23T17:00:47.567Z,8.90
2022-12-23T17:03:33.688Z,8.92
2022-12-23T17:06:20.722Z,8.84
2022-12-23T17:09:08.050Z,8.75
2022-12-23T17:11:54.379Z,8.77
2022-12-23T17:14:40.558Z,8.70
2022-12-23T17:17:26.626Z,8.61
2022-12-23T17:20:13.149Z,8.60
2022-12-23T17:22:59.718Z,8.61
2022-12-23T17:25:45.883Z,8.50
2022-12-23T17:28:32.928Z,8.47
2022-12-23T17:31:26.703Z,8.48
2022-12-23T17:34:21.702Z,8.41
2022-12-23T17:37:17.671Z,8.33
2022-12-23T17:40:04.250Z,8.27
2022-12-23T17:42:50.706Z,8.17
2022-12-23T17:45:36.565Z,8.17
2022-12-23T17:48:28.022Z,8.15
2022-12-23T17:51:19.507Z,8.10
2022-12-23T17:54:06.568Z,8.02
2022-12-23T17:56:53.130Z,7.96
2022-12-23T17:59:39.189Z,7.94
2022-12-23T18:02:25.172Z,7.93
2022-12-23T18:05:24.478Z,7.85
2022-12-23T18:08:10.441Z,7.81
2022-12-23T18:10:57.564Z,7.76
2022-12-23T18:13:43.645Z,7.76
2022-12-23T18:16:30.304Z,7.60
2022-12-23T18:19:18.332Z,7.66
2022-12-23T18:22:04.309Z,7.66
2022-12-23T18:24:55.289Z,7.63
2022-12-23T18:27:45.367Z,7.60
2022-12-23T18:30:31.371Z,7.56
2022-12-23T18:33:17.254Z,7.53
2022-12-23T18:36:03.282Z,7.49
2022-12-23T18:38:49.658Z,7.42
2022-12-23T18:41:35.427Z,7.40
2022-12-23T18:44:21.635Z,7.39
2022-12-23T18:47:07.645Z,7.34
2022-12-23T18:49:53.602Z,7.32
2022-12-23T18:52:39.602Z,7.27
2022-12-23T18:55:26.054Z,7.22
2022-12-23T18:58:13.389Z,7.22
2022-12-23T19:00:59.473Z,7.08
2022-12-23T19:03:45.739Z,7.14
2022-12-23T19:06:31.798Z,7.11
2022-12-23T19:09:22.882Z,7.06
2022-12-23T19:12:09.351Z,7.06
2022-12-23T19:14:55.253Z,7.00
2022-12-23T19:17:41.436Z,6.89
2022-12-23T19:20:27.518Z,6.87
2022-12-23T19:23:13.987Z,6.83
2022-12-23T19:26:00.490Z,6.90
2022-12-23T19:28:48.696Z,6.89
2022-12-23T19:31:34.672Z,6.87
2022-12-23T19:34:20.788Z,6.81
2022-12-23T19:37:06.701Z,6.79
2022-12-23T19:39:52.919Z,6.76
2022-12-23T19:42:39.750Z,6.63
2022-12-23T19:45:25.944Z,6.74
2022-12-23T19:48:11.798Z,6.70
2022-12-23T19:50:59.614Z,6.71
2022-12-23T19:53:46.373Z,6.68
2022-12-23T19:56:32.647Z,6.67
2022-12-23T19:59:19.609Z,6.66
2022-12-23T20:02:06.547Z,6.63
2022-12-23T20:04:52.833Z,6.63
2022-12-23T20:07:38.977Z,6.57
2022-12-23T20:10:24.792Z,6.55
2022-12-23T20:13:10.638Z,6.53
2022-12-23T20:15:56.637Z,6.51
2022-12-23T20:18:42.875Z,6.49
2022-12-23T20:21:29.049Z,6.46
2022-12-23T20:24:15.597Z,6.38
2022-12-23T20:27:03.293Z,6.36
2022-12-23T20:29:52.462Z,6.36
2022-12-23T20:32:38.380Z,6.31
2022-12-23T20:35:24.797Z,6.21
2022-12-23T20:38:10.522Z,6.27
2022-12-23T20:40:56.711Z,6.24
2022-12-23T20:43:46.058Z,6.25
2022-12-23T20:46:38.814Z,6.18
2022-12-23T20:49:24.651Z,6.14
2022-12-23T20:52:10.679Z,6.11
2022-12-23T20:54:56.788Z,6.06
2022-12-23T20:57:44.680Z,6.04
2022-12-23T21:00:32.711Z,6.00
2022-12-23T21:03:18.651Z,6.00
2022-12-23T21:06:05.249Z,5.96
2022-12-23T21:08:52.422Z,5.85
2022-12-23T21:11:43.867Z,5.80
2022-12-23T21:14:29.799Z,5.88
2022-12-23T21:17:15.692Z,5.78
2022-12-23T21:20:07.497Z,5.89
2022-12-23T21:22:54.112Z,5.86
2022-12-23T21:25:39.866Z,5.82
2022-12-23T21:28:25.751Z,5.84
2022-12-23T21:31:12.370Z,5.82
2022-12-23T21:33:59.015Z,5.81
2022-12-23T21:36:44.917Z,5.75
2022-12-23T21:39:30.780Z,5.74
2022-12-23T21:42:16.951Z,5.74
2022-12-23T21:45:03.341Z,5.73
2022-12-23T21:47:49.674Z,5.69
2022-12-23T21:50:35.427Z,5.67
2022-12-23T21:53:21.751Z,5.67
2022-12-23T21:56:10.328Z,5.56
2022-12-23T21:58:58.094Z,5.65
2022-12-23T22:01:44.539Z,5.65
2022-12-23T22:04:30.686Z,5.59
2022-12-23T22:07:16.669Z,5.49
2022-12-23T22:10:02.953Z,5.64
2022-12-23T22:12:49.187Z,5.59
2022-12-23T22:15:34.859Z,5.61
2022-12-23T22:18:20.890Z,5.58
2022-12-23T22:21:18.126Z,5.50
2022-12-23T22:24:04.224Z,5.49
2022-12-23T22:26:50.318Z,5.51
2022-12-23T22:29:36.145Z,5.38
2022-12-23T22:32:22.129Z,5.37
2022-12-23T22:35:08.317Z,5.45
2022-12-23T22:37:54.591Z,5.43
2022-12-23T22:40:40.616Z,5.44
2022-12-23T22:43:26.399Z,5.34
2022-12-23T22:46:12.261Z,5.32
2022-12-23T22:48:59.005Z,5.38
2022-12-23T22:51:45.427Z,5.35
2022-12-23T22:54:31.606Z,5.30
2022-12-23T22:57:17.322Z,5.26
2022-12-23T23:00:11.623Z,5.32
2022-12-23T23:02:58.435Z,5.26
2022-12-23T23:05:44.408Z,5.28
2022-12-23T23:08:30.876Z,5.30
2022-12-23T23:11:17.034Z,5.24
2022-12-23T23:14:02.948Z,5.17
2022-12-23T23:16:48.856Z,5.17
2022-12-23T23:19:34.679Z,5.12
2022-12-23T23:22:22.326Z,5.09
2022-12-23T23:25:08.956Z,5.09
2022-12-23T23:27:54.937Z,4.92
2022-12-23T23:30:40.928Z,5.02
2022-12-23T23:33:26.852Z,4.91
2022-12-23T23:36:12.758Z,4.99
2022-12-23T23:38:58.622Z,4.97
2022-12-23T23:41:44.340Z,4.93
2022-12-23T23:44:30.303Z,4.93
2022-12-23T23:47:16.106Z,4.95
2022-12-23T23:50:02.393Z,4.94
2022-12-23T23:52:48.569Z,4.90
2022-12-23T23:55:34.497Z,4.86
2022-12-23T23:58:20.477Z,4.84
